createdAt,value
2023-02-15T00:00:01.017Z,10.09
2023-02-15T00:02:27.830Z,10.00
2023-02-15T00:04:56.710Z,9.95
2023-02-15T00:07:23.519Z,9.91
2023-02-15T00:09:50.245Z,9.92
2023-02-15T00:12:17.840Z,9.80
2023-02-15T00:14:44.849Z,9.78
2023-02-15T00:17:11.661Z,9.92
2023-02-15T00:19:38.494Z,9.94
2023-02-15T00:22:05.211Z,10.02
2023-02-15T00:24:32.072Z,10.00
2023-02-15T00:26:59.051Z,9.96
2023-02-15T00:29:25.929Z,9.99
2023-02-15T00:31:53.247Z,10.00
2023-02-15T00:34:23.140Z,10.07
2023-02-15T00:36:50.628Z,10.08
2023-02-15T00:39:18.357Z,10.08
2023-02-15T00:41:46.374Z,10.07
2023-02-15T00:44:14.008Z,10.07
2023-02-15T00:46:40.808Z,10.09
2023-02-15T00:49:10.078Z,10.10
2023-02-15T00:51:38.862Z,10.12
2023-02-15T00:54:05.849Z,10.10
2023-02-15T00:56:32.581Z,10.12
2023-02-15T00:58:59.374Z,10.08
2023-02-15T01:01:26.953Z,10.03
2023-02-15T01:03:53.884Z,10.03
2023-02-15T01:06:20.760Z,9.89
2023-02-15T01:08:48.487Z,9.93
2023-02-15T01:11:23.379Z,9.92
2023-02-15T01:13:57.776Z,9.92
2023-02-15T01:16:27.454Z,9.85
2023-02-15T01:18:55.762Z,9.87
2023-02-15T01:21:25.267Z,9.84
2023-02-15T01:23:52.281Z,9.82
2023-02-15T01:26:19.202Z,9.82
2023-02-15T01:28:46.535Z,9.82
2023-02-15T01:31:16.697Z,9.82
2023-02-15T01:33:45.977Z,9.80
2023-02-15T01:36:12.821Z,9.76
2023-02-15T01:38:41.000Z,9.80
2023-02-15T01:41:27.318Z,9.70
2023-02-15T01:43:55.784Z,9.68
2023-02-15T01:46:53.103Z,9.69
2023-02-15T01:49:25.891Z,9.66
2023-02-15T01:51:53.974Z,9.69
2023-02-15T01:54:32.577Z,9.75
2023-02-15T01:57:05.588Z,9.73
2023-02-15T01:59:35.145Z,9.73
2023-02-15T02:02:04.081Z,9.70
2023-02-15T02:04:54.058Z,9.74
2023-02-15T02:07:39.894Z,9.71
2023-02-15T02:10:10.488Z,9.70
2023-02-15T02:12:39.721Z,9.65
2023-02-15T02:15:09.478Z,9.69
2023-02-15T02:18:02.997Z,9.73
2023-02-15T02:21:06.530Z,9.69
2023-02-15T02:23:50.201Z,9.57
2023-02-15T02:26:50.745Z,9.64
2023-02-15T02:29:17.476Z,9.62
2023-02-15T02:32:20.134Z,9.65
2023-02-15T02:34:57.869Z,9.67
2023-02-15T02:37:57.477Z,9.69
2023-02-15T02:40:35.364Z,9.51
2023-02-15T02:43:17.299Z,9.56
2023-02-15T02:45:53.353Z,9.54
2023-02-15T02:48:25.239Z,9.48
2023-02-15T02:50:52.083Z,9.50
2023-02-15T02:53:18.896Z,9.30
2023-02-15T02:55:53.105Z,9.38
2023-02-15T02:58:32.386Z,9.40
2023-02-15T03:01:06.788Z,9.31
2023-02-15T03:03:43.063Z,9.31
2023-02-15T03:06:29.130Z,9.28
2023-02-15T03:09:05.219Z,9.30
2023-02-15T03:11:32.062Z,9.25
2023-02-15T03:13:59.320Z,9.27
2023-02-15T03:16:27.480Z,9.24
2023-02-15T03:19:00.206Z,9.17
2023-02-15T03:21:58.392Z,9.12
2023-02-15T03:24:29.874Z,8.97
2023-02-15T03:26:58.074Z,8.87
2023-02-15T03:29:29.379Z,8.88
2023-02-15T03:32:01.805Z,8.81
2023-02-15T03:34:29.601Z,8.69
2023-02-15T03:37:08.238Z,8.68
2023-02-15T03:39:46.147Z,8.67
2023-02-15T03:42:26.087Z,8.61
2023-02-15T03:45:00.650Z,8.56
2023-02-15T03:47:32.387Z,8.45
2023-02-15T03:50:30.952Z,8.44
2023-02-15T03:53:00.046Z,8.31
2023-02-15T03:55:27.085Z,8.22
2023-02-15T03:58:12.381Z,8.16
2023-02-15T04:01:05.546Z,8.05
2023-02-15T04:03:41.564Z,8.15
2023-02-15T04:06:08.417Z,8.02
2023-02-15T04:08:53.983Z,8.02
2023-02-15T04:11:20.739Z,8.19
2023-02-15T04:13:47.489Z,8.22
2023-02-15T04:16:14.551Z,8.32
2023-02-15T04:19:02.601Z,8.21
2023-02-15T04:21:49.877Z,8.19
2023-02-15T04:24:35.991Z,8.08
2023-02-15T04:27:04.211Z,8.07
2023-02-15T04:29:31.389Z,8.12
2023-02-15T04:32:00.574Z,8.22
2023-02-15T04:34:27.448Z,8.29
2023-02-15T04:36:54.194Z,8.35
2023-02-15T04:39:20.935Z,8.34
2023-02-15T04:41:48.757Z,8.24
2023-02-15T04:44:15.759Z,8.28
2023-02-15T04:46:42.456Z,8.34
2023-02-15T04:49:10.403Z,8.40
2023-02-15T04:51:37.574Z,8.37
2023-02-15T04:54:04.491Z,8.33
2023-02-15T04:56:32.221Z,8.30
2023-02-15T04:58:58.995Z,8.38
2023-02-15T05:01:26.028Z,8.42
2023-02-15T05:03:52.881Z,8.45
2023-02-15T05:06:19.670Z,8.46
2023-02-15T05:08:46.474Z,8.46
2023-02-15T05:11:13.241Z,8.49
2023-02-15T05:13:39.961Z,8.46
2023-02-15T05:16:06.689Z,8.48
2023-02-15T05:18:33.608Z,8.53
2023-02-15T05:21:00.364Z,8.49
2023-02-15T05:23:27.163Z,8.46
2023-02-15T05:26:12.625Z,8.47
2023-02-15T05:28:39.753Z,8.38
2023-02-15T05:31:16.359Z,8.34
2023-02-15T05:33:44.309Z,8.24
2023-02-15T05:36:11.641Z,8.17
2023-02-15T05:38:39.405Z,7.98
2023-02-15T05:41:06.987Z,8.00
2023-02-15T05:43:34.583Z,8.11
2023-02-15T05:46:01.889Z,8.00
2023-02-15T05:48:29.438Z,7.96
2023-02-15T05:51:03.243Z,7.98
2023-02-15T05:53:31.990Z,7.85
2023-02-15T05:56:03.622Z,7.79
2023-02-15T05:58:33.932Z,7.82
2023-02-15T06:01:01.072Z,7.68
2023-02-15T06:03:29.684Z,7.82
2023-02-15T06:05:56.481Z,7.91
2023-02-15T06:08:23.211Z,7.93
2023-02-15T06:10:50.024Z,8.31
2023-02-15T06:13:16.847Z,8.53
2023-02-15T06:15:43.764Z,8.67
2023-02-15T06:18:10.632Z,8.63
2023-02-15T06:20:37.449Z,8.58
2023-02-15T06:23:04.273Z,8.67
2023-02-15T06:25:31.131Z,8.67
2023-02-15T06:27:57.880Z,8.77
2023-02-15T06:30:24.706Z,8.81
2023-02-15T06:32:51.515Z,8.60
2023-02-15T06:35:18.248Z,8.65
2023-02-15T06:37:47.627Z,8.72
2023-02-15T06:40:15.001Z,8.75
2023-02-15T06:42:42.723Z,8.75
2023-02-15T06:45:10.342Z,8.75
2023-02-15T06:47:37.482Z,8.80
2023-02-15T06:50:08.210Z,8.75
2023-02-15T06:52:35.048Z,8.76
2023-02-15T06:55:02.037Z,8.72
2023-02-15T06:57:28.857Z,8.68
2023-02-15T06:59:55.637Z,8.63
2023-02-15T07:02:22.465Z,8.62
2023-02-15T07:04:49.247Z,8.56
2023-02-15T07:07:16.351Z,8.52
2023-02-15T07:09:43.128Z,8.57
2023-02-15T07:12:29.377Z,8.58
2023-02-15T07:14:56.119Z,8.74
2023-02-15T07:17:38.538Z,8.79
2023-02-15T07:20:08.863Z,8.80
2023-02-15T07:22:37.375Z,8.71
2023-02-15T07:25:09.288Z,8.74
2023-02-15T07:27:36.382Z,8.72
2023-02-15T07:30:04.196Z,8.71
2023-02-15T07:32:32.370Z,8.66
2023-02-15T07:35:00.157Z,8.63
2023-02-15T07:37:28.057Z,8.64
2023-02-15T07:39:54.848Z,8.59
2023-02-15T07:42:23.046Z,8.68
2023-02-15T07:44:50.251Z,8.75
2023-02-15T07:47:17.164Z,8.67
2023-02-15T07:49:43.958Z,8.55
2023-02-15T07:52:10.780Z,8.55
2023-02-15T07:54:37.563Z,8.64
2023-02-15T07:57:04.480Z,8.63
2023-02-15T07:59:31.242Z,8.71
2023-02-15T08:01:58.268Z,8.72
2023-02-15T08:04:25.581Z,8.67
2023-02-15T08:06:56.112Z,8.82
2023-02-15T08:09:23.413Z,8.81
2023-02-15T08:11:50.481Z,8.76
2023-02-15T08:14:19.778Z,8.77
2023-02-15T08:16:51.057Z,8.86
2023-02-15T08:19:17.949Z,9.02
2023-02-15T08:21:50.715Z,8.99
2023-02-15T08:24:20.462Z,9.13
2023-02-15T08:26:48.737Z,9.22
2023-02-15T08:29:23.477Z,9.15
2023-02-15T08:31:53.759Z,9.33
2023-02-15T08:34:21.427Z,9.52
2023-02-15T08:36:48.302Z,9.54
2023-02-15T08:39:16.271Z,9.60
2023-02-15T08:41:45.900Z,9.64
2023-02-15T08:44:12.801Z,9.85
2023-02-15T08:46:42.935Z,9.91
2023-02-15T08:49:11.204Z,9.83
2023-02-15T08:51:39.725Z,10.08
2023-02-15T08:54:13.684Z,10.19
2023-02-15T08:56:42.684Z,10.21
2023-02-15T08:59:14.761Z,10.14
2023-02-15T09:01:41.623Z,10.07
2023-02-15T09:04:13.745Z,9.96
2023-02-15T09:06:41.912Z,10.17
2023-02-15T09:09:09.518Z,10.38
2023-02-15T09:11:42.235Z,10.52
2023-02-15T09:14:14.478Z,10.70
2023-02-15T09:16:42.944Z,10.66
2023-02-15T09:19:09.905Z,10.90
2023-02-15T09:21:38.369Z,11.03
2023-02-15T09:24:08.776Z,11.22
2023-02-15T09:26:38.951Z,11.35
2023-02-15T09:29:05.782Z,11.32
2023-02-15T09:31:37.842Z,11.39
2023-02-15T09:34:04.496Z,11.54
2023-02-15T09:36:39.753Z,11.49
2023-02-15T09:39:24.742Z,11.37
2023-02-15T09:42:12.061Z,11.58
2023-02-15T09:45:09.357Z,11.68
2023-02-15T09:47:48.637Z,11.79
2023-02-15T09:50:44.481Z,11.90
2023-02-15T09:53:20.686Z,11.80
2023-02-15T09:56:05.864Z,11.92
2023-02-15T09:58:43.126Z,11.99
2023-02-15T10:01:33.397Z,12.14
2023-02-15T10:04:18.148Z,12.21
2023-02-15T10:07:35.891Z,12.25
2023-02-15T10:10:14.555Z,12.41
2023-02-15T10:13:04.447Z,12.47
2023-02-15T10:16:16.735Z,12.56
2023-02-15T10:19:04.601Z,12.57
2023-02-15T10:21:49.796Z,12.66
2023-02-15T10:24:48.744Z,12.67
2023-02-15T10:27:22.940Z,12.68
2023-02-15T10:30:11.660Z,12.85
2023-02-15T10:32:59.971Z,12.96
2023-02-15T10:35:53.816Z,13.14
2023-02-15T10:38:34.003Z,13.36
2023-02-15T10:41:17.174Z,13.55
2023-02-15T10:43:59.450Z,13.60
2023-02-15T10:46:26.066Z,13.64
2023-02-15T10:49:09.535Z,13.79
2023-02-15T10:52:00.725Z,13.95
2023-02-15T10:55:01.078Z,14.12
2023-02-15T10:57:49.096Z,14.27
2023-02-15T11:01:01.574Z,14.39
2023-02-15T11:03:40.714Z,14.47
2023-02-15T11:06:14.842Z,14.55
2023-02-15T11:08:46.387Z,14.66
2023-02-15T11:11:40.399Z,14.71
2023-02-15T11:14:16.190Z,14.88
2023-02-15T11:16:49.848Z,15.09
2023-02-15T11:19:25.129Z,15.12
2023-02-15T11:21:56.048Z,15.26
2023-02-15T11:24:26.840Z,15.37
2023-02-15T11:27:18.452Z,15.43
2023-02-15T11:30:01.672Z,15.50
2023-02-15T11:32:36.252Z,15.55
2023-02-15T11:35:42.792Z,15.56
2023-02-15T11:38:29.893Z,15.41
2023-02-15T11:41:03.384Z,15.40
2023-02-15T11:43:39.237Z,15.38
2023-02-15T11:46:06.895Z,15.39
2023-02-15T11:48:33.784Z,15.46
2023-02-15T11:51:03.403Z,15.35
2023-02-15T11:53:34.657Z,15.18
2023-02-15T11:56:01.873Z,15.34
2023-02-15T11:58:52.445Z,15.47
2023-02-15T12:01:40.809Z,15.57
2023-02-15T12:04:26.042Z,15.60
2023-02-15T12:07:23.706Z,15.69
2023-02-15T12:10:00.829Z,15.63
2023-02-15T12:12:30.316Z,15.66
2023-02-15T12:14:59.484Z,15.78
2023-02-15T12:17:29.834Z,15.81
2023-02-15T12:20:07.683Z,15.79
2023-02-15T12:22:38.432Z,15.85
2023-02-15T12:25:23.009Z,15.78
2023-02-15T12:27:50.888Z,15.79
2023-02-15T12:30:32.919Z,15.89
2023-02-15T12:33:36.474Z,15.94
2023-02-15T12:36:12.367Z,15.85
2023-02-15T12:38:39.527Z,15.85
2023-02-15T12:41:24.181Z,15.88
2023-02-15T12:44:14.397Z,15.82
2023-02-15T12:46:41.392Z,15.79
2023-02-15T12:49:21.985Z,15.70
2023-02-15T12:51:53.441Z,15.66
2023-02-15T12:54:23.843Z,15.57
2023-02-15T12:56:50.938Z,15.58
2023-02-15T12:59:23.178Z,15.56
2023-02-15T13:01:52.211Z,15.49
2023-02-15T13:04:30.350Z,15.45
2023-02-15T13:07:03.143Z,15.44
2023-02-15T13:09:32.928Z,15.44
2023-02-15T13:12:17.543Z,15.50
2023-02-15T13:14:46.890Z,15.51
2023-02-15T13:17:16.390Z,15.56
2023-02-15T13:19:55.545Z,15.54
2023-02-15T13:22:36.846Z,15.59
2023-02-15T13:25:19.979Z,15.69
2023-02-15T13:27:49.544Z,15.73
2023-02-15T13:30:19.731Z,15.75
2023-02-15T13:32:49.464Z,15.78
2023-02-15T13:35:18.382Z,15.85
2023-02-15T13:38:35.451Z,15.89
2023-02-15T13:41:16.598Z,15.94
2023-02-15T13:44:08.282Z,15.98
2023-02-15T13:46:46.832Z,16.01
2023-02-15T13:49:29.721Z,15.91
2023-02-15T13:51:59.220Z,15.90
2023-02-15T13:54:54.044Z,15.79
2023-02-15T13:57:55.921Z,15.83
2023-02-15T14:00:24.213Z,15.71
2023-02-15T14:02:57.170Z,15.76
2023-02-15T14:05:43.035Z,15.76
2023-02-15T14:08:11.076Z,15.65
2023-02-15T14:11:21.070Z,15.68
2023-02-15T14:13:54.050Z,15.76
2023-02-15T14:16:34.783Z,15.69
2023-02-15T14:19:24.763Z,15.80
2023-02-15T14:22:09.373Z,15.83
2023-02-15T14:24:45.534Z,15.88
2023-02-15T14:27:15.068Z,15.85
2023-02-15T14:29:53.586Z,15.89
2023-02-15T14:32:25.763Z,15.93
2023-02-15T14:35:04.942Z,15.91
2023-02-15T14:38:04.013Z,15.98
2023-02-15T14:41:05.051Z,15.89
2023-02-15T14:43:57.095Z,15.94
2023-02-15T14:46:34.335Z,15.82
2023-02-15T14:49:04.001Z,15.71
2023-02-15T14:51:46.816Z,15.66
2023-02-15T14:54:22.536Z,15.65
2023-02-15T14:57:09.453Z,15.58
2023-02-15T14:59:46.324Z,15.52
2023-02-15T15:02:26.412Z,15.50
2023-02-15T15:04:53.162Z,15.43
2023-02-15T15:07:25.795Z,15.36
2023-02-15T15:10:16.760Z,15.33
2023-02-15T15:12:55.844Z,15.29
2023-02-15T15:15:28.574Z,15.22
2023-02-15T15:17:59.324Z,15.14
2023-02-15T15:20:51.834Z,15.09
2023-02-15T15:23:22.070Z,14.96
2023-02-15T15:26:12.538Z,14.96
2023-02-15T15:28:39.372Z,15.03
2023-02-15T15:31:21.195Z,15.01
2023-02-15T15:34:17.713Z,15.05
2023-02-15T15:37:16.445Z,15.00
2023-02-15T15:40:17.045Z,14.98
2023-02-15T15:43:31.427Z,14.86
2023-02-15T15:46:25.452Z,14.74
2023-02-15T15:48:53.466Z,14.74
2023-02-15T15:51:34.491Z,14.72
2023-02-15T15:54:03.992Z,14.71
2023-02-15T15:56:36.967Z,14.72
2023-02-15T15:59:08.175Z,14.74
2023-02-15T16:01:43.451Z,14.77
2023-02-15T16:04:22.947Z,14.80
2023-02-15T16:06:49.794Z,14.75
2023-02-15T16:09:28.893Z,14.70
2023-02-15T16:12:02.861Z,14.66
2023-02-15T16:14:40.442Z,14.50
2023-02-15T16:17:16.628Z,14.57
2023-02-15T16:19:44.602Z,14.52
2023-02-15T16:22:16.338Z,14.54
2023-02-15T16:25:16.928Z,14.44
2023-02-15T16:27:45.358Z,14.43
2023-02-15T16:30:23.611Z,14.43
2023-02-15T16:33:17.465Z,14.39
2023-02-15T16:35:56.691Z,14.38
2023-02-15T16:38:35.718Z,14.32
2023-02-15T16:41:02.840Z,14.33
2023-02-15T16:43:32.782Z,14.27
2023-02-15T16:46:15.359Z,14.23
2023-02-15T16:48:46.689Z,14.22
2023-02-15T16:51:23.544Z,14.20
2023-02-15T16:53:51.048Z,14.15
2023-02-15T16:56:23.971Z,14.13
2023-02-15T16:58:53.368Z,14.11
2023-02-15T17:01:24.918Z,14.11
2023-02-15T17:04:10.876Z,14.09
2023-02-15T17:06:37.759Z,14.05
2023-02-15T17:09:07.038Z,14.03
2023-02-15T17:11:42.225Z,14.03
2023-02-15T17:14:11.490Z,13.96
2023-02-15T17:16:52.551Z,13.99
2023-02-15T17:19:29.167Z,13.91
2023-02-15T17:22:07.730Z,13.86
2023-02-15T17:24:42.997Z,13.86
2023-02-15T17:27:22.226Z,13.82
2023-02-15T17:29:57.394Z,13.81
2023-02-15T17:32:27.225Z,13.79
2023-02-15T17:35:40.029Z,13.76
2023-02-15T17:38:15.961Z,13.74
2023-02-15T17:40:42.897Z,13.66
2023-02-15T17:43:09.742Z,13.67
2023-02-15T17:45:48.467Z,13.65
2023-02-15T17:48:22.917Z,13.65
2023-02-15T17:50:50.194Z,13.65
2023-02-15T17:53:19.498Z,13.63
2023-02-15T17:55:46.608Z,13.62
2023-02-15T17:58:16.036Z,13.60
2023-02-15T18:01:06.060Z,13.61
2023-02-15T18:04:05.172Z,13.60
2023-02-15T18:06:51.700Z,13.60
2023-02-15T18:09:39.299Z,13.59
2023-02-15T18:12:30.166Z,13.60
2023-02-15T18:14:58.487Z,13.60
2023-02-15T18:17:46.378Z,13.59
2023-02-15T18:20:35.166Z,13.56
2023-02-15T18:23:02.490Z,13.56
2023-02-15T18:25:29.910Z,13.55
2023-02-15T18:27:57.366Z,13.57
2023-02-15T18:30:28.941Z,13.56
2023-02-15T18:32:58.920Z,13.54
2023-02-15T18:35:30.667Z,13.53
2023-02-15T18:37:59.467Z,13.54
2023-02-15T18:40:28.890Z,13.54
2023-02-15T18:42:57.189Z,13.54
2023-02-15T18:45:28.645Z,13.55
2023-02-15T18:47:55.513Z,13.53
2023-02-15T18:50:24.681Z,13.52
2023-02-15T18:52:51.611Z,13.49
2023-02-15T18:55:27.765Z,13.48
2023-02-15T18:57:56.856Z,13.45
2023-02-15T19:00:32.434Z,13.44
2023-02-15T19:03:02.083Z,13.44
2023-02-15T19:05:30.305Z,13.43
2023-02-15T19:07:58.886Z,13.42
2023-02-15T19:10:27.986Z,13.41
2023-02-15T19:12:56.015Z,13.41
2023-02-15T19:15:30.224Z,13.42
2023-02-15T19:17:56.978Z,13.39
2023-02-15T19:20:28.120Z,13.39
2023-02-15T19:22:56.656Z,13.40
2023-02-15T19:25:28.565Z,13.40
2023-02-15T19:27:57.479Z,13.39
2023-02-15T19:30:30.256Z,13.41
2023-02-15T19:32:58.141Z,13.38
2023-02-15T19:35:29.571Z,13.39
2023-02-15T19:37:58.916Z,13.37
2023-02-15T19:40:28.828Z,13.35
2023-02-15T19:42:56.026Z,13.34
2023-02-15T19:45:28.993Z,13.34
2023-02-15T19:47:56.527Z,13.31
2023-02-15T19:50:26.368Z,13.33
2023-02-15T19:52:53.347Z,13.34
2023-02-15T19:55:34.262Z,13.34
2023-02-15T19:58:02.596Z,13.34
2023-02-15T20:00:33.847Z,13.33
2023-02-15T20:03:01.734Z,13.31
2023-02-15T20:05:30.336Z,13.31
2023-02-15T20:07:58.053Z,13.30
2023-02-15T20:10:28.377Z,13.31
2023-02-15T20:12:55.918Z,13.32
2023-02-15T20:15:27.604Z,13.29
2023-02-15T20:17:55.088Z,13.25
2023-02-15T20:20:23.760Z,13.23
2023-02-15T20:22:51.977Z,13.21
2023-02-15T20:25:26.493Z,13.19
2023-02-15T20:27:54.177Z,13.19
2023-02-15T20:30:24.387Z,13.16
2023-02-15T20:32:51.815Z,13.01
2023-02-15T20:35:23.280Z,12.89
2023-02-15T20:37:52.856Z,12.75
2023-02-15T20:40:26.394Z,12.72
2023-02-15T20:42:53.198Z,12.69
2023-02-15T20:45:21.508Z,12.75
2023-02-15T20:47:50.125Z,12.72
2023-02-15T20:50:19.839Z,12.74
2023-02-15T20:52:48.315Z,12.54
2023-02-15T20:55:27.034Z,12.57
2023-02-15T20:57:53.934Z,12.48
2023-02-15T21:00:23.944Z,12.40
2023-02-15T21:02:54.234Z,12.29
2023-02-15T21:05:23.797Z,12.14
2023-02-15T21:07:52.006Z,12.07
2023-02-15T21:10:24.421Z,12.05
2023-02-15T21:12:52.153Z,12.04
2023-02-15T21:15:31.284Z,12.05
2023-02-15T21:18:00.769Z,11.83
2023-02-15T21:20:29.710Z,11.70
2023-02-15T21:22:59.705Z,11.67
2023-02-15T21:25:34.382Z,11.71
2023-02-15T21:28:01.307Z,11.72
2023-02-15T21:30:28.558Z,11.58
2023-02-15T21:32:55.622Z,11.65
2023-02-15T21:35:22.544Z,11.73
2023-02-15T21:37:51.235Z,11.53
2023-02-15T21:40:17.970Z,11.47
2023-02-15T21:43:03.626Z,11.38
2023-02-15T21:45:49.042Z,11.36
2023-02-15T21:48:16.141Z,11.39
2023-02-15T21:51:02.270Z,11.45
2023-02-15T21:53:35.351Z,11.32
2023-02-15T21:56:06.807Z,11.39
2023-02-15T21:58:36.769Z,11.28
2023-02-15T22:01:05.964Z,11.21
2023-02-15T22:03:38.440Z,11.18
2023-02-15T22:06:06.135Z,11.15
2023-02-15T22:08:33.518Z,11.15
2023-02-15T22:11:00.293Z,11.07
2023-02-15T22:13:31.119Z,11.15
2023-02-15T22:15:58.618Z,10.99
2023-02-15T22:18:28.910Z,11.03
2023-02-15T22:20:56.973Z,10.96
2023-02-15T22:23:23.970Z,10.83
2023-02-15T22:25:57.002Z,10.82
2023-02-15T22:28:31.502Z,10.86
2023-02-15T22:30:58.290Z,10.77
2023-02-15T22:33:31.803Z,10.84
2023-02-15T22:35:59.553Z,10.68
2023-02-15T22:38:26.745Z,10.78
2023-02-15T22:40:56.898Z,10.70
2023-02-15T22:43:38.404Z,10.72
2023-02-15T22:46:13.632Z,10.81
2023-02-15T22:48:42.090Z,10.81
2023-02-15T22:51:13.422Z,10.74
2023-02-15T22:53:40.206Z,10.67
2023-02-15T22:56:12.462Z,10.67
2023-02-15T22:58:39.378Z,10.71
2023-02-15T23:01:06.287Z,10.74
2023-02-15T23:03:33.595Z,10.70
2023-02-15T23:06:00.506Z,10.68
2023-02-15T23:08:27.269Z,10.69
2023-02-15T23:10:56.853Z,10.65
2023-02-15T23:13:41.626Z,10.68
2023-02-15T23:16:14.448Z,10.54
2023-02-15T23:18:44.013Z,10.51
2023-02-15T23:21:29.865Z,10.55
2023-02-15T23:24:09.801Z,10.50
2023-02-15T23:26:36.603Z,10.57
2023-02-15T23:29:04.172Z,10.45
2023-02-15T23:31:34.202Z,10.51
2023-02-15T23:34:07.292Z,10.52
2023-02-15T23:36:39.493Z,10.58
2023-02-15T23:39:42.060Z,10.46
2023-02-15T23:42:13.123Z,10.50
2023-02-15T23:44:41.065Z,10.44
2023-02-15T23:47:20.677Z,10.44
2023-02-15T23:49:47.652Z,10.48
2023-02-15T23:52:14.397Z,10.51
2023-02-15T23:54:41.326Z,10.37
2023-02-15T23:57:11.680Z,10.39
2023-02-15T23:59:43.289Z,10.40
